This is the latest recevied weather packets stored in our database for station/object CX2SA-13. If no packets are shown the sender has not sent any weather packets the latest 10 day(s).
| Time | Temp. | Humidity | Pressure | Rain* | Wind** | Luminosity | Snow |
|---|---|---|---|---|---|---|---|
| 1777867186 | 10.56° C | 82% | 1013.2 hPa | 0 mm | - | - | - |
| 1777866284 | 11.11° C | 80% | 1013.2 hPa | 0 mm | - | - | - |
| 1777865385 | 11.11° C | 79% | 1013.2 hPa | 0 mm | - | - | - |
| 1777864483 | 11.11° C | 79% | 1013.2 hPa | 0 mm | - | - | - |
| 1777863584 | 11.67° C | 79% | 1013.2 hPa | 0 mm | - | - | - |
| 1777862685 | 11.67° C | 78% | 1013.2 hPa | 0 mm | - | - | - |
| 1777861784 | 11.67° C | 77% | 1013.2 hPa | 0 mm | - | - | - |
| 1777860885 | 11.67° C | 76% | 1013.5 hPa | 0 mm | - | - | - |
| 1777859985 | 12.22° C | 74% | 1013.5 hPa | 0 mm | - | - | - |
| 1777859084 | 12.22° C | 73% | 1013.5 hPa | 0 mm | - | - | - |
| 1777858185 | 12.78° C | 72% | 1013.8 hPa | 0 mm | - | - | - |
| 1777857286 | 12.78° C | 72% | 1013.8 hPa | 0 mm | - | - | - |
| 1777856384 | 12.78° C | 71% | 1013.8 hPa | 0 mm | - | - | - |
| 1777855485 | 13.33° C | 70% | 1013.8 hPa | 0 mm | - | - | - |
| 1777854584 | 13.33° C | 70% | 1013.5 hPa | 0 mm | - | - | - |
| 1777853684 | 13.33° C | 70% | 1013.5 hPa | 0 mm | - | - | - |
| 1777852785 | 13.33° C | 69% | 1013.8 hPa | 0 mm | - | - | - |
| 1777851884 | 13.33° C | 69% | 1013.8 hPa | 0 mm | - | - | - |
| 1777850985 | 13.33° C | 70% | 1013.8 hPa | 0 mm | - | - | - |
| 1777850085 | 12.78° C | 73% | 1013.8 hPa | 0 mm | - | - | - |
| 1777849184 | 13.33° C | 72% | 1014.2 hPa | 0 mm | - | - | - |
| 1777848285 | 13.33° C | 70% | 1014.2 hPa | 0 mm | - | - | - |
| 1777847386 | 14.44° C | 66% | 1014.5 hPa | 0 mm | - | - | - |
| 1777846484 | 15° C | 61% | 1014.2 hPa | 0 mm | - | - | - |
| 1777845585 | 15.56° C | 60% | 1014.2 hPa | 0 mm | - | - | - |
* Rain since midnight (hover to see other rain measurements)
** Current wind speed in m/s (hover to see current wind gust speed)